createdAt,value
2023-03-11T00:00:55.322Z,983.28
2023-03-11T00:01:55.374Z,983.25
2023-03-11T00:02:55.356Z,983.28
2023-03-11T00:03:55.350Z,983.34
2023-03-11T00:04:55.385Z,983.34
2023-03-11T00:05:55.370Z,983.43
2023-03-11T00:06:55.374Z,983.51
2023-03-11T00:07:55.388Z,983.58
2023-03-11T00:08:55.388Z,983.56
2023-03-11T00:09:55.395Z,983.61
2023-03-11T00:10:55.459Z,983.68
2023-03-11T00:11:55.419Z,983.64
2023-03-11T00:12:55.417Z,983.74
2023-03-11T00:13:55.425Z,983.75
2023-03-11T00:14:55.431Z,983.76
2023-03-11T00:15:55.443Z,983.82
2023-03-11T00:16:55.484Z,983.81
2023-03-11T00:17:55.459Z,983.85
2023-03-11T00:18:55.462Z,983.82
2023-03-11T00:19:55.473Z,983.95
2023-03-11T00:20:55.475Z,983.94
2023-03-11T00:21:55.489Z,983.92
2023-03-11T00:22:55.491Z,983.95
2023-03-11T00:23:55.502Z,983.99
2023-03-11T00:24:55.504Z,984.00
2023-03-11T00:25:55.514Z,984.03
2023-03-11T00:26:55.519Z,984.03
2023-03-11T00:27:55.528Z,984.01
2023-03-11T00:28:55.560Z,984.02
2023-03-11T00:29:55.539Z,984.10
2023-03-11T00:30:55.614Z,984.12
2023-03-11T00:31:55.556Z,984.17
2023-03-11T00:32:55.565Z,984.17
2023-03-11T00:33:55.568Z,984.17
2023-03-11T00:34:55.572Z,984.21
2023-03-11T00:35:55.607Z,984.21
2023-03-11T00:36:55.589Z,984.23
2023-03-11T00:37:55.608Z,984.15
2023-03-11T00:38:55.607Z,984.27
2023-03-11T00:39:55.609Z,984.28
2023-03-11T00:40:55.613Z,984.32
2023-03-11T00:41:55.620Z,984.29
2023-03-11T00:42:55.627Z,984.34
2023-03-11T00:43:55.642Z,984.35
2023-03-11T00:44:55.653Z,984.40
2023-03-11T00:45:55.681Z,984.38
2023-03-11T00:46:55.653Z,984.42
2023-03-11T00:47:55.659Z,984.42
2023-03-11T00:48:55.665Z,984.40
2023-03-11T00:49:55.672Z,984.43
2023-03-11T00:50:55.678Z,984.52
2023-03-11T00:51:55.688Z,984.52
2023-03-11T00:52:55.691Z,984.57
2023-03-11T00:53:55.699Z,984.51
2023-03-11T00:54:55.706Z,984.58
2023-03-11T00:55:55.712Z,984.58
2023-03-11T00:56:55.720Z,984.68
2023-03-11T00:57:55.726Z,984.66
2023-03-11T00:58:55.735Z,984.67
2023-03-11T00:59:55.738Z,984.68
2023-03-11T01:00:55.765Z,984.70
2023-03-11T01:01:55.759Z,984.74
2023-03-11T01:02:55.760Z,984.80
2023-03-11T01:03:55.768Z,984.77
2023-03-11T01:04:55.841Z,984.85
2023-03-11T01:05:55.780Z,984.87
2023-03-11T01:06:55.782Z,984.85
2023-03-11T01:07:55.793Z,984.95
2023-03-11T01:08:55.802Z,984.97
2023-03-11T01:09:55.806Z,984.94
2023-03-11T01:10:55.812Z,985.05
2023-03-11T01:11:55.821Z,985.09
2023-03-11T01:12:55.824Z,985.09
2023-03-11T01:13:55.832Z,985.14
2023-03-11T01:14:55.845Z,985.14
2023-03-11T01:15:55.889Z,985.17
2023-03-11T01:16:55.857Z,985.21
2023-03-11T01:17:55.877Z,985.16
2023-03-11T01:18:55.870Z,985.31
2023-03-11T01:19:55.889Z,985.31
2023-03-11T01:20:55.890Z,985.40
2023-03-11T01:21:55.881Z,985.37
2023-03-11T01:22:55.899Z,985.46
2023-03-11T01:23:55.912Z,985.45
2023-03-11T01:24:55.903Z,985.54
2023-03-11T01:25:55.925Z,985.53
2023-03-11T01:26:55.920Z,985.55
2023-03-11T01:27:55.945Z,985.65
2023-03-11T01:28:55.934Z,985.62
2023-03-11T01:29:55.939Z,985.73
2023-03-11T01:30:55.966Z,985.62
2023-03-11T01:31:55.945Z,985.70
2023-03-11T01:32:55.953Z,985.73
2023-03-11T01:33:55.962Z,985.79
2023-03-11T01:34:55.968Z,985.78
2023-03-11T01:35:56.027Z,985.82
2023-03-11T01:36:55.977Z,985.86
2023-03-11T01:37:55.993Z,985.99
2023-03-11T01:38:55.997Z,985.93
2023-03-11T01:39:55.997Z,985.92
2023-03-11T01:40:56.002Z,985.91
2023-03-11T01:41:56.010Z,985.85
2023-03-11T01:42:56.015Z,985.98
2023-03-11T01:43:56.020Z,986.04
2023-03-11T01:44:56.025Z,986.09
2023-03-11T01:45:56.034Z,986.04
2023-03-11T01:46:56.041Z,986.20
2023-03-11T01:47:56.049Z,986.22
2023-03-11T01:48:56.052Z,986.21
2023-03-11T01:49:56.063Z,986.30
2023-03-11T01:50:56.065Z,986.29
2023-03-11T01:51:56.068Z,986.35
2023-03-11T01:52:56.075Z,986.39
2023-03-11T01:53:56.086Z,986.36
2023-03-11T01:54:56.089Z,986.48
2023-03-11T01:55:56.102Z,986.44
2023-03-11T01:56:56.132Z,986.49
2023-03-11T01:57:56.108Z,986.52
2023-03-11T01:58:56.115Z,986.56
2023-03-11T01:59:56.122Z,986.58
2023-03-11T02:00:56.127Z,986.59
2023-03-11T02:01:56.179Z,986.53
2023-03-11T02:02:56.206Z,986.75
2023-03-11T02:03:56.147Z,986.65
2023-03-11T02:04:56.151Z,986.83
2023-03-11T02:05:56.157Z,986.77
2023-03-11T02:06:56.168Z,986.84
2023-03-11T02:07:56.171Z,986.89
2023-03-11T02:08:56.179Z,986.96
2023-03-11T02:09:56.185Z,987.00
2023-03-11T02:10:56.189Z,987.00
2023-03-11T02:11:56.214Z,987.04
2023-03-11T02:12:56.203Z,987.10
2023-03-11T02:13:56.230Z,987.09
2023-03-11T02:14:56.217Z,987.14
2023-03-11T02:15:56.274Z,987.19
2023-03-11T02:16:56.235Z,987.24
2023-03-11T02:17:56.236Z,987.34
2023-03-11T02:18:56.246Z,987.38
2023-03-11T02:19:56.251Z,987.33
2023-03-11T02:20:56.253Z,987.32
2023-03-11T02:21:56.266Z,987.48
2023-03-11T02:22:56.273Z,987.50
2023-03-11T02:23:56.276Z,987.48
2023-03-11T02:24:56.282Z,987.63
2023-03-11T02:25:56.299Z,987.60
2023-03-11T02:26:56.299Z,987.62
2023-03-11T02:27:56.302Z,987.70
2023-03-11T02:28:56.307Z,987.77
2023-03-11T02:29:56.313Z,987.87
2023-03-11T02:30:56.325Z,987.85
2023-03-11T02:31:56.328Z,987.86
2023-03-11T02:32:56.338Z,987.91
2023-03-11T02:33:56.346Z,988.19
2023-03-11T02:34:56.346Z,987.89
2023-03-11T02:35:56.363Z,987.89
2023-03-11T02:36:56.365Z,988.07
2023-03-11T02:37:56.364Z,988.07
2023-03-11T02:38:56.389Z,988.07
2023-03-11T02:39:56.378Z,988.27
2023-03-11T02:40:56.385Z,988.15
2023-03-11T02:41:56.391Z,988.18
2023-03-11T02:42:56.403Z,988.36
2023-03-11T02:43:56.405Z,988.45
2023-03-11T02:44:56.409Z,988.38
2023-03-11T02:45:56.414Z,988.40
2023-03-11T02:46:56.475Z,988.57
2023-03-11T02:47:56.435Z,988.51
2023-03-11T02:48:56.438Z,988.54
2023-03-11T02:49:56.436Z,988.55
2023-03-11T02:50:56.442Z,988.58
2023-03-11T02:51:56.449Z,988.61
2023-03-11T02:52:56.461Z,988.64
2023-03-11T02:53:56.463Z,988.62
2023-03-11T02:54:56.466Z,988.71
2023-03-11T02:55:56.473Z,988.76
2023-03-11T02:56:56.482Z,988.74
2023-03-11T02:57:56.482Z,988.81
2023-03-11T02:58:56.491Z,988.85
2023-03-11T02:59:56.500Z,988.93
2023-03-11T03:00:56.507Z,988.97
2023-03-11T03:01:56.519Z,989.00
2023-03-11T03:02:56.515Z,989.09
2023-03-11T03:03:56.569Z,989.00
2023-03-11T03:04:56.524Z,989.09
2023-03-11T03:05:56.533Z,989.07
2023-03-11T03:06:56.546Z,989.13
2023-03-11T03:07:56.546Z,989.20
2023-03-11T03:08:56.559Z,989.22
2023-03-11T03:09:56.559Z,989.24
2023-03-11T03:10:56.564Z,989.28
2023-03-11T03:11:56.591Z,989.34
2023-03-11T03:12:56.583Z,989.39
2023-03-11T03:13:56.581Z,989.39
2023-03-11T03:14:56.589Z,989.39
2023-03-11T03:15:56.594Z,989.44
2023-03-11T03:16:56.648Z,989.55
2023-03-11T03:17:56.605Z,989.53
2023-03-11T03:18:56.615Z,989.60
2023-03-11T03:19:56.621Z,989.66
2023-03-11T03:20:56.625Z,989.69
2023-03-11T03:21:56.634Z,989.74
2023-03-11T03:22:56.651Z,989.80
2023-03-11T03:23:56.647Z,989.85
2023-03-11T03:24:56.651Z,989.88
2023-03-11T03:25:56.658Z,989.85
2023-03-11T03:26:56.665Z,989.94
2023-03-11T03:27:56.686Z,989.97
2023-03-11T03:28:56.683Z,990.04
2023-03-11T03:29:56.684Z,990.08
2023-03-11T03:30:56.690Z,990.13
2023-03-11T03:31:56.796Z,990.08
2023-03-11T03:32:56.706Z,990.15
2023-03-11T03:33:56.711Z,990.16
2023-03-11T03:34:56.716Z,990.21
2023-03-11T03:35:56.766Z,990.27
2023-03-11T03:36:56.741Z,990.32
2023-03-11T03:37:56.735Z,990.39
2023-03-11T03:38:56.739Z,990.38
2023-03-11T03:39:56.751Z,990.48
2023-03-11T03:40:56.753Z,990.45
2023-03-11T03:41:56.760Z,990.59
2023-03-11T03:42:56.772Z,990.56
2023-03-11T03:43:56.779Z,990.63
2023-03-11T03:44:56.781Z,990.59
2023-03-11T03:45:56.816Z,990.61
2023-03-11T03:46:56.792Z,990.76
2023-03-11T03:47:56.815Z,990.85
2023-03-11T03:48:56.803Z,990.82
2023-03-11T03:49:56.815Z,990.81
2023-03-11T03:50:56.821Z,990.89
2023-03-11T03:51:56.825Z,990.91
2023-03-11T03:52:56.832Z,990.90
2023-03-11T03:53:56.837Z,990.93
2023-03-11T03:54:56.857Z,990.98
2023-03-11T03:55:56.852Z,991.04
2023-03-11T03:56:56.857Z,991.07
2023-03-11T03:57:56.869Z,991.05
2023-03-11T03:58:56.872Z,991.11
2023-03-11T03:59:56.879Z,991.11
2023-03-11T04:00:56.883Z,991.15
2023-03-11T04:01:56.929Z,991.15
2023-03-11T04:02:56.993Z,991.23
2023-03-11T04:03:56.904Z,991.20
2023-03-11T04:04:56.909Z,991.28
2023-03-11T04:05:56.919Z,991.29
2023-03-11T04:06:56.933Z,991.29
2023-03-11T04:07:56.931Z,991.30
2023-03-11T04:08:56.940Z,991.36
2023-03-11T04:09:56.942Z,991.39
2023-03-11T04:10:56.958Z,991.47
2023-03-11T04:11:56.959Z,991.57
2023-03-11T04:12:56.963Z,991.49
2023-03-11T04:13:56.976Z,991.50
2023-03-11T04:14:56.979Z,991.54
2023-03-11T04:15:56.983Z,991.55
2023-03-11T04:16:57.046Z,991.65
2023-03-11T04:17:56.995Z,991.65
2023-03-11T04:18:57.017Z,991.73
2023-03-11T04:19:57.010Z,991.72
2023-03-11T04:20:57.021Z,991.70
2023-03-11T04:21:57.023Z,991.72
2023-03-11T04:22:57.028Z,991.73
2023-03-11T04:23:57.044Z,991.75
2023-03-11T04:24:57.040Z,991.78
2023-03-11T04:25:57.062Z,991.83
2023-03-11T04:26:57.054Z,991.85
2023-03-11T04:27:57.077Z,991.85
2023-03-11T04:28:57.070Z,991.96
2023-03-11T04:29:57.068Z,991.91
2023-03-11T04:30:57.102Z,991.92
2023-03-11T04:31:57.088Z,991.98
2023-03-11T04:32:57.089Z,992.04
2023-03-11T04:33:57.092Z,992.02
2023-03-11T04:34:57.105Z,992.12
2023-03-11T04:35:57.146Z,992.02
2023-03-11T04:36:57.125Z,992.05
2023-03-11T04:37:57.117Z,992.13
2023-03-11T04:38:57.125Z,992.21
2023-03-11T04:39:57.137Z,992.12
2023-03-11T04:40:57.138Z,992.22
2023-03-11T04:41:57.142Z,992.24
2023-03-11T04:42:57.148Z,992.26
2023-03-11T04:43:57.156Z,992.31
2023-03-11T04:44:57.162Z,992.40
2023-03-11T04:45:57.196Z,992.30
2023-03-11T04:46:57.181Z,992.42
2023-03-11T04:47:57.187Z,992.47
2023-03-11T04:48:57.189Z,992.43
2023-03-11T04:49:57.200Z,992.49
2023-03-11T04:50:57.206Z,992.50
2023-03-11T04:51:57.212Z,992.51
2023-03-11T04:52:57.219Z,992.55
2023-03-11T04:53:57.224Z,992.56
2023-03-11T04:54:57.227Z,992.57
2023-03-11T04:55:57.231Z,992.70
2023-03-11T04:56:57.237Z,992.69
2023-03-11T04:57:57.245Z,992.69
2023-03-11T04:58:57.253Z,992.76
2023-03-11T04:59:57.262Z,992.73
2023-03-11T05:00:57.264Z,992.82
2023-03-11T05:01:57.273Z,992.77
2023-03-11T05:02:57.318Z,992.82
2023-03-11T05:03:57.289Z,992.90
2023-03-11T05:04:57.330Z,992.89
2023-03-11T05:05:57.298Z,992.92
2023-03-11T05:06:57.305Z,992.96
2023-03-11T05:07:57.309Z,993.03
2023-03-11T05:08:57.340Z,993.01
2023-03-11T05:09:57.325Z,993.01
2023-03-11T05:10:57.329Z,993.09
2023-03-11T05:11:57.337Z,993.16
2023-03-11T05:12:57.349Z,993.16
2023-03-11T05:13:57.364Z,993.19
2023-03-11T05:14:57.364Z,993.26
2023-03-11T05:15:57.382Z,993.24
2023-03-11T05:16:57.366Z,993.30
2023-03-11T05:17:57.375Z,993.32
2023-03-11T05:18:57.381Z,993.36
2023-03-11T05:19:57.393Z,993.36
2023-03-11T05:20:57.396Z,993.35
2023-03-11T05:21:57.407Z,993.40
2023-03-11T05:22:57.409Z,993.41
2023-03-11T05:23:57.414Z,993.50
2023-03-11T05:24:57.419Z,993.50
2023-03-11T05:25:57.423Z,993.49
2023-03-11T05:26:57.438Z,993.56
2023-03-11T05:27:57.449Z,993.63
2023-03-11T05:28:57.446Z,993.56
2023-03-11T05:29:57.455Z,993.61
2023-03-11T05:30:57.480Z,993.63
2023-03-11T05:31:57.467Z,993.71
2023-03-11T05:32:57.543Z,993.69
2023-03-11T05:33:57.480Z,993.75
2023-03-11T05:34:57.496Z,993.72
2023-03-11T05:35:57.538Z,993.80
2023-03-11T05:36:57.506Z,993.87
2023-03-11T05:37:57.508Z,993.84
2023-03-11T05:38:57.514Z,993.88
2023-03-11T05:39:57.521Z,993.89
2023-03-11T05:40:57.530Z,993.88
2023-03-11T05:41:57.535Z,993.90
2023-03-11T05:42:57.542Z,993.90
2023-03-11T05:43:57.548Z,994.00
2023-03-11T05:44:57.554Z,994.05
2023-03-11T05:45:57.560Z,994.06
2023-03-11T05:46:57.590Z,994.08
2023-03-11T05:47:57.574Z,994.10
2023-03-11T05:48:57.581Z,994.12
2023-03-11T05:49:57.590Z,994.20
2023-03-11T05:50:57.602Z,994.15
2023-03-11T05:51:58.733Z,994.16
2023-03-11T05:52:57.609Z,994.17
2023-03-11T05:53:57.622Z,994.28
2023-03-11T05:54:57.620Z,994.23
2023-03-11T05:55:57.636Z,994.28
2023-03-11T05:56:57.654Z,994.25
2023-03-11T05:57:57.652Z,994.27
2023-03-11T05:58:57.645Z,994.29
2023-03-11T05:59:57.659Z,994.26
2023-03-11T06:00:57.660Z,994.32
2023-03-11T06:01:57.675Z,994.32
2023-03-11T06:02:57.692Z,994.36
2023-03-11T06:03:57.748Z,994.38
2023-03-11T06:04:57.854Z,994.35
2023-03-11T06:05:57.725Z,994.45
2023-03-11T06:06:57.704Z,994.48
2023-03-11T06:07:57.709Z,994.36
2023-03-11T06:08:57.710Z,994.49
2023-03-11T06:09:57.724Z,994.50
2023-03-11T06:10:57.736Z,994.59
2023-03-11T06:11:57.750Z,994.54
2023-03-11T06:12:57.748Z,994.61
2023-03-11T06:13:57.751Z,994.59
2023-03-11T06:14:57.751Z,994.62
2023-03-11T06:15:57.777Z,994.60
2023-03-11T06:16:57.766Z,994.60
2023-03-11T06:17:57.813Z,994.66
2023-03-11T06:18:57.776Z,994.68
2023-03-11T06:19:57.786Z,994.73
2023-03-11T06:20:57.789Z,994.70
2023-03-11T06:21:57.799Z,994.70
2023-03-11T06:22:57.804Z,994.76
2023-03-11T06:23:57.814Z,994.76
2023-03-11T06:24:57.819Z,994.79
2023-03-11T06:25:57.828Z,994.87
2023-03-11T06:26:57.832Z,994.94
2023-03-11T06:27:57.838Z,994.93
2023-03-11T06:28:57.849Z,994.98
2023-03-11T06:29:57.850Z,995.03
2023-03-11T06:30:57.859Z,995.02
2023-03-11T06:31:57.925Z,995.03
2023-03-11T06:32:57.921Z,995.07
2023-03-11T06:33:57.877Z,995.07
2023-03-11T06:34:57.888Z,995.14
2023-03-11T06:35:57.900Z,995.12
2023-03-11T06:36:57.897Z,995.26
2023-03-11T06:37:57.906Z,995.31
2023-03-11T06:38:57.916Z,995.31
2023-03-11T06:39:57.919Z,995.27
2023-03-11T06:40:57.925Z,995.25
2023-03-11T06:41:57.934Z,995.33
2023-03-11T06:42:57.956Z,995.36
2023-03-11T06:43:57.949Z,995.47
2023-03-11T06:44:57.950Z,995.36
2023-03-11T06:45:57.994Z,995.49
2023-03-11T06:46:57.965Z,995.50
2023-03-11T06:47:57.981Z,995.59
2023-03-11T06:48:57.999Z,995.55
2023-03-11T06:49:57.987Z,995.59
2023-03-11T06:50:57.994Z,995.69
2023-03-11T06:51:58.005Z,995.69
2023-03-11T06:52:58.011Z,995.74
2023-03-11T06:53:58.013Z,995.73
2023-03-11T06:54:58.021Z,995.75
2023-03-11T06:55:58.028Z,995.78
2023-03-11T06:56:58.036Z,995.89
2023-03-11T06:57:58.042Z,995.80
2023-03-11T06:58:58.048Z,995.77
2023-03-11T06:59:58.056Z,995.90
2023-03-11T07:00:58.087Z,995.99
2023-03-11T07:01:58.074Z,995.91
2023-03-11T07:02:58.081Z,995.95
2023-03-11T07:03:58.142Z,995.99
2023-03-11T07:04:58.090Z,996.00
2023-03-11T07:05:58.126Z,996.00
2023-03-11T07:06:58.111Z,996.08
2023-03-11T07:07:58.118Z,996.06
2023-03-11T07:08:58.121Z,996.07
2023-03-11T07:09:58.137Z,996.18
2023-03-11T07:10:58.135Z,996.16
2023-03-11T07:11:58.148Z,996.16
2023-03-11T07:12:58.144Z,996.11
2023-03-11T07:13:58.155Z,996.18
2023-03-11T07:14:58.166Z,996.18
2023-03-11T07:15:58.172Z,996.20
2023-03-11T07:16:58.248Z,996.24
2023-03-11T07:17:58.187Z,996.21
2023-03-11T07:18:58.189Z,996.15
2023-03-11T07:19:58.197Z,996.33
2023-03-11T07:20:58.210Z,996.34
2023-03-11T07:21:58.229Z,996.43
2023-03-11T07:22:58.227Z,996.49
2023-03-11T07:23:58.227Z,996.45
2023-03-11T07:24:58.232Z,996.53
2023-03-11T07:25:58.241Z,996.53
2023-03-11T07:26:58.249Z,996.62
2023-03-11T07:27:58.255Z,996.64
2023-03-11T07:28:58.269Z,996.59
2023-03-11T07:29:58.280Z,996.69
2023-03-11T07:30:58.274Z,996.72
2023-03-11T07:31:58.338Z,996.73
2023-03-11T07:32:58.364Z,996.71
2023-03-11T07:33:58.297Z,996.72
2023-03-11T07:34:58.303Z,996.63
2023-03-11T07:35:58.341Z,996.79
2023-03-11T07:36:58.325Z,996.83
2023-03-11T07:37:58.324Z,996.85
2023-03-11T07:38:58.360Z,996.87
2023-03-11T07:39:58.342Z,996.85
2023-03-11T07:40:58.343Z,996.93
2023-03-11T07:41:58.352Z,996.89
2023-03-11T07:42:58.363Z,996.98
2023-03-11T07:43:58.365Z,997.05
2023-03-11T07:44:58.374Z,997.08
2023-03-11T07:45:58.409Z,997.10
2023-03-11T07:46:58.385Z,997.20
2023-03-11T07:47:58.397Z,997.08
2023-03-11T07:48:58.401Z,997.14
2023-03-11T07:49:58.413Z,997.19
2023-03-11T07:50:58.418Z,997.31
2023-03-11T07:51:58.423Z,997.32
2023-03-11T07:52:58.431Z,997.27
2023-03-11T07:53:58.444Z,997.30
2023-03-11T07:54:58.449Z,997.34
2023-03-11T07:55:58.454Z,997.42
2023-03-11T07:56:58.461Z,997.47
2023-03-11T07:57:58.470Z,997.47
2023-03-11T07:58:58.494Z,997.50
2023-03-11T07:59:58.484Z,997.47
2023-03-11T08:00:58.497Z,997.46
2023-03-11T08:01:58.499Z,997.53
2023-03-11T08:02:58.513Z,997.46
2023-03-11T08:03:58.555Z,997.45
2023-03-11T08:04:58.522Z,997.61
2023-03-11T08:05:58.537Z,997.61
2023-03-11T08:06:58.549Z,997.60
2023-03-11T08:07:58.548Z,997.57
2023-03-11T08:08:58.553Z,997.62
2023-03-11T08:09:58.564Z,997.68
2023-03-11T08:10:58.572Z,997.64
2023-03-11T08:11:58.585Z,997.77
2023-03-11T08:12:58.588Z,997.72
2023-03-11T08:13:58.606Z,997.72
2023-03-11T08:14:58.601Z,997.80
2023-03-11T08:15:58.654Z,997.85
2023-03-11T08:16:58.628Z,997.90
2023-03-11T08:17:58.627Z,997.81
2023-03-11T08:18:58.636Z,997.90
2023-03-11T08:19:58.641Z,997.83
2023-03-11T08:20:58.649Z,997.90
2023-03-11T08:21:58.661Z,997.92
2023-03-11T08:22:58.726Z,997.99
2023-03-11T08:23:58.678Z,997.94
2023-03-11T08:24:58.683Z,997.94
2023-03-11T08:25:58.690Z,998.05
2023-03-11T08:26:58.713Z,998.10
2023-03-11T08:27:58.709Z,998.09
2023-03-11T08:28:58.713Z,998.16
2023-03-11T08:29:58.724Z,998.17
2023-03-11T08:30:58.746Z,998.25
2023-03-11T08:31:58.743Z,998.19
2023-03-11T08:32:58.756Z,998.25
2023-03-11T08:33:58.790Z,998.31
2023-03-11T08:34:58.766Z,998.37
2023-03-11T08:35:58.844Z,998.35
2023-03-11T08:36:58.781Z,998.39
2023-03-11T08:37:58.792Z,998.43
2023-03-11T08:38:58.872Z,998.37
2023-03-11T08:39:58.808Z,998.40
2023-03-11T08:40:58.815Z,998.40
2023-03-11T08:41:58.830Z,998.46
2023-03-11T08:42:58.835Z,998.45
2023-03-11T08:43:58.855Z,998.43
2023-03-11T08:44:58.850Z,998.50
2023-03-11T08:45:58.919Z,998.55
2023-03-11T08:46:58.869Z,998.52
2023-03-11T08:47:58.878Z,998.52
2023-03-11T08:49:00.885Z,998.62
2023-03-11T08:49:58.893Z,998.50
2023-03-11T08:50:58.901Z,998.61
2023-03-11T08:51:58.911Z,998.66
2023-03-11T08:52:58.919Z,998.55
2023-03-11T08:53:58.928Z,998.58
2023-03-11T08:54:58.936Z,998.72
2023-03-11T08:55:58.942Z,998.75
2023-03-11T08:56:58.952Z,998.82
2023-03-11T08:57:58.963Z,998.90
2023-03-11T08:58:58.973Z,998.74
2023-03-11T08:59:58.979Z,998.81
2023-03-11T09:00:58.986Z,998.81
2023-03-11T09:01:58.997Z,998.84
2023-03-11T09:02:59.057Z,998.96
2023-03-11T09:03:59.021Z,998.80
2023-03-11T09:04:59.023Z,998.88
2023-03-11T09:05:59.075Z,998.93
2023-03-11T09:06:59.040Z,998.84
2023-03-11T09:07:59.051Z,998.93
2023-03-11T09:08:59.065Z,999.01
2023-03-11T09:09:59.067Z,998.98
2023-03-11T09:10:59.078Z,999.01
2023-03-11T09:11:59.087Z,999.14
2023-03-11T09:12:59.097Z,999.06
2023-03-11T09:13:59.106Z,998.98
2023-03-11T09:14:59.111Z,998.97
2023-03-11T09:15:59.126Z,999.00
2023-03-11T09:16:59.131Z,999.06
2023-03-11T09:17:59.137Z,999.10
2023-03-11T09:18:59.172Z,999.14
2023-03-11T09:19:59.184Z,999.14
2023-03-11T09:20:59.206Z,999.15
2023-03-11T09:21:59.182Z,999.19
2023-03-11T09:22:59.185Z,999.25
2023-03-11T09:23:59.223Z,999.24
2023-03-11T09:24:59.215Z,999.35
2023-03-11T09:25:59.213Z,999.34
2023-03-11T09:26:59.233Z,999.30
2023-03-11T09:27:59.240Z,999.32
2023-03-11T09:28:59.277Z,999.30
2023-03-11T09:29:59.273Z,999.37
2023-03-11T09:30:59.255Z,999.40
2023-03-11T09:31:59.275Z,999.35
2023-03-11T09:32:59.278Z,999.26
2023-03-11T09:33:59.320Z,999.30
2023-03-11T09:34:59.295Z,999.27
2023-03-11T09:35:59.406Z,999.28
2023-03-11T09:36:59.312Z,999.35
2023-03-11T09:37:59.336Z,999.41
2023-03-11T09:38:59.339Z,999.51
2023-03-11T09:39:59.367Z,999.37
2023-03-11T09:40:59.354Z,999.35
2023-03-11T09:41:59.527Z,999.44
2023-03-11T09:42:59.379Z,999.42
2023-03-11T09:43:59.386Z,999.41
2023-03-11T09:44:59.394Z,999.44
2023-03-11T09:45:59.402Z,999.51
2023-03-11T09:46:59.434Z,999.51
2023-03-11T09:47:59.426Z,999.48
2023-03-11T09:48:59.435Z,999.51
2023-03-11T09:49:59.439Z,999.66
2023-03-11T09:50:59.452Z,999.60
2023-03-11T09:51:59.458Z,999.61
2023-03-11T09:52:59.465Z,999.57
2023-03-11T09:53:59.479Z,999.59
2023-03-11T09:54:59.493Z,999.66
2023-03-11T09:55:59.496Z,999.67
2023-03-11T09:56:59.509Z,999.69
2023-03-11T09:57:59.526Z,999.77
2023-03-11T09:58:59.546Z,999.66
2023-03-11T09:59:59.533Z,999.67
2023-03-11T10:00:59.549Z,999.70
2023-03-11T10:01:59.609Z,999.64
2023-03-11T10:02:59.581Z,999.70
2023-03-11T10:03:59.591Z,999.73
2023-03-11T10:04:59.585Z,999.69
2023-03-11T10:05:59.596Z,999.77
2023-03-11T10:06:59.603Z,999.75
2023-03-11T10:07:59.608Z,999.81
2023-03-11T10:08:59.618Z,999.77
2023-03-11T10:09:59.624Z,999.84
2023-03-11T10:10:59.634Z,999.90
2023-03-11T10:11:59.646Z,999.82
2023-03-11T10:12:59.653Z,999.88
2023-03-11T10:13:59.663Z,999.89
2023-03-11T10:14:59.674Z,999.90
2023-03-11T10:15:59.776Z,999.94
2023-03-11T10:16:59.686Z,999.92
2023-03-11T10:17:59.696Z,999.93
2023-03-11T10:18:59.704Z,999.97
2023-03-11T10:19:59.711Z,1000.08
2023-03-11T10:20:59.732Z,1000.03
2023-03-11T10:21:59.729Z,1000.13
2023-03-11T10:22:59.739Z,1000.10
2023-03-11T10:23:59.746Z,1000.07
2023-03-11T10:24:59.753Z,1000.05
2023-03-11T10:25:59.773Z,1000.13
2023-03-11T10:26:59.783Z,1000.15
2023-03-11T10:27:59.781Z,1000.14
2023-03-11T10:28:59.789Z,1000.19
2023-03-11T10:29:59.802Z,1000.08
2023-03-11T10:30:59.805Z,1000.20
2023-03-11T10:31:59.873Z,1000.17
2023-03-11T10:32:59.824Z,1000.18
2023-03-11T10:33:59.828Z,1000.21
2023-03-11T10:34:59.838Z,1000.26
2023-03-11T10:35:59.896Z,1000.33
2023-03-11T10:36:59.855Z,1000.32
2023-03-11T10:37:59.865Z,1000.37
2023-03-11T10:38:59.872Z,1000.41
2023-03-11T10:39:59.881Z,1000.42
2023-03-11T10:40:59.888Z,1000.39
2023-03-11T10:41:59.900Z,1000.43
2023-03-11T10:42:59.906Z,1000.45
2023-03-11T10:43:59.917Z,1000.46
2023-03-11T10:44:59.922Z,1000.48
2023-03-11T10:46:00.028Z,1000.46
2023-03-11T10:46:59.949Z,1000.60
2023-03-11T10:47:59.960Z,1000.57
2023-03-11T10:48:59.970Z,1000.58
2023-03-11T10:49:59.970Z,1000.57
2023-03-11T10:50:59.979Z,1000.56
2023-03-11T10:51:59.994Z,1000.57
2023-03-11T10:52:59.999Z,1000.67
2023-03-11T10:54:00.011Z,1000.76
2023-03-11T10:55:00.019Z,1000.77
2023-03-11T10:56:00.041Z,1000.67
2023-03-11T10:57:00.057Z,1000.56
2023-03-11T10:58:00.054Z,1000.60
2023-03-11T10:59:00.072Z,1000.63
2023-03-11T11:00:00.098Z,1000.66
2023-03-11T11:01:00.108Z,1000.64
2023-03-11T11:02:00.127Z,1000.61
2023-03-11T11:03:00.133Z,1000.71
2023-03-11T11:04:00.153Z,1000.65
2023-03-11T11:05:00.119Z,1000.67
2023-03-11T11:06:00.129Z,1000.66
2023-03-11T11:07:00.142Z,1000.69
2023-03-11T11:08:00.151Z,1000.63
2023-03-11T11:09:00.166Z,1000.73
2023-03-11T11:10:00.174Z,1000.72
2023-03-11T11:11:00.196Z,1000.67
2023-03-11T11:12:00.199Z,1000.61
2023-03-11T11:13:00.203Z,1000.67
2023-03-11T11:14:00.224Z,1000.69
2023-03-11T11:15:00.233Z,1000.67
2023-03-11T11:16:00.265Z,1000.61
2023-03-11T11:17:00.306Z,1000.65
2023-03-11T11:18:00.258Z,1000.68
2023-03-11T11:19:00.263Z,1000.76
2023-03-11T11:20:00.273Z,1000.81
2023-03-11T11:21:00.284Z,1000.76
2023-03-11T11:22:00.294Z,1000.79
2023-03-11T11:23:00.305Z,1000.75
2023-03-11T11:24:00.315Z,1000.79
2023-03-11T11:25:00.367Z,1000.79
2023-03-11T11:26:00.333Z,1000.80
2023-03-11T11:27:00.343Z,1000.86
2023-03-11T11:28:00.361Z,1000.81
2023-03-11T11:29:00.366Z,1000.82
2023-03-11T11:30:00.376Z,1000.85
2023-03-11T11:31:00.481Z,1000.85
2023-03-11T11:32:00.394Z,1000.84
2023-03-11T11:33:00.401Z,1000.83
2023-03-11T11:34:00.415Z,1000.91
2023-03-11T11:35:00.423Z,1000.88
2023-03-11T11:36:00.432Z,1000.92
2023-03-11T11:37:00.446Z,1000.90
2023-03-11T11:38:00.450Z,1000.90
2023-03-11T11:39:00.460Z,1000.92
2023-03-11T11:40:00.471Z,1000.94
2023-03-11T11:41:00.478Z,1000.90
2023-03-11T11:42:00.492Z,1000.89
2023-03-11T11:43:00.514Z,1000.99
2023-03-11T11:44:00.512Z,1000.83
2023-03-11T11:45:00.524Z,1000.82
2023-03-11T11:46:00.537Z,1000.76
2023-03-11T11:47:00.545Z,1000.78
2023-03-11T11:48:00.552Z,1000.87
2023-03-11T11:49:00.557Z,1000.85
2023-03-11T11:50:00.570Z,1000.83
2023-03-11T11:51:00.588Z,1000.86
2023-03-11T11:52:00.591Z,1000.93
2023-03-11T11:53:00.602Z,1000.95
2023-03-11T11:54:00.612Z,1000.89
2023-03-11T11:55:00.620Z,1000.88
2023-03-11T11:56:00.637Z,1000.90
2023-03-11T11:57:00.641Z,1000.76
2023-03-11T11:58:00.662Z,1000.87
2023-03-11T11:59:00.660Z,1000.81
2023-03-11T12:00:00.671Z,1000.85
2023-03-11T12:01:00.694Z,1000.80
2023-03-11T12:02:00.694Z,1000.80
2023-03-11T12:03:00.705Z,1000.79
2023-03-11T12:04:00.741Z,1000.87
2023-03-11T12:05:00.724Z,1000.87
2023-03-11T12:06:00.852Z,1000.84
2023-03-11T12:07:00.753Z,1000.84
2023-03-11T12:08:00.758Z,1000.83
2023-03-11T12:09:00.773Z,1000.86
2023-03-11T12:10:09.848Z,1000.84
2023-03-11T12:11:00.787Z,1000.83
2023-03-11T12:12:00.795Z,1000.86
2023-03-11T12:13:00.803Z,1000.84
2023-03-11T12:14:00.815Z,1000.86
2023-03-11T12:15:00.821Z,1000.91
2023-03-11T12:16:00.921Z,1001.06
2023-03-11T12:17:01.979Z,1001.09
2023-03-11T12:18:00.851Z,1000.99
2023-03-11T12:19:00.898Z,1000.94
2023-03-11T12:20:00.869Z,1000.99
2023-03-11T12:21:00.879Z,1001.07
2023-03-11T12:22:00.889Z,1001.05
2023-03-11T12:23:00.899Z,1001.01
2023-03-11T12:24:00.910Z,1001.10
2023-03-11T12:25:00.919Z,1001.09